createdAt,value
2023-04-08T00:00:26.629Z,12.19
2023-04-08T00:02:53.576Z,12.15
2023-04-08T00:05:20.390Z,12.16
2023-04-08T00:07:47.122Z,12.16
2023-04-08T00:10:13.881Z,12.15
2023-04-08T00:12:40.812Z,12.13
2023-04-08T00:15:07.771Z,12.11
2023-04-08T00:17:34.561Z,12.10
2023-04-08T00:20:01.408Z,12.07
2023-04-08T00:22:28.158Z,12.02
2023-04-08T00:24:54.921Z,11.99
2023-04-08T00:27:21.691Z,11.93
2023-04-08T00:29:48.492Z,11.87
2023-04-08T00:32:15.435Z,11.86
2023-04-08T00:34:42.218Z,11.83
2023-04-08T00:37:09.210Z,11.79
2023-04-08T00:39:37.193Z,11.74
2023-04-08T00:42:04.138Z,11.71
2023-04-08T00:44:31.185Z,11.65
2023-04-08T00:46:57.975Z,11.66
2023-04-08T00:49:26.387Z,11.66
2023-04-08T00:51:55.833Z,11.65
2023-04-08T00:54:22.974Z,11.62
2023-04-08T00:56:49.772Z,11.59
2023-04-08T00:59:18.283Z,11.55
2023-04-08T01:01:56.614Z,11.54
2023-04-08T01:04:51.652Z,11.50
2023-04-08T01:07:21.913Z,11.42
2023-04-08T01:10:03.985Z,11.44
2023-04-08T01:12:33.544Z,11.43
2023-04-08T01:15:08.027Z,11.46
2023-04-08T01:17:37.515Z,11.45
2023-04-08T01:20:06.810Z,11.43
2023-04-08T01:22:43.523Z,11.44
2023-04-08T01:25:20.151Z,11.45
2023-04-08T01:27:49.494Z,11.46
2023-04-08T01:30:19.799Z,11.46
2023-04-08T01:32:47.843Z,11.47
2023-04-08T01:35:16.648Z,11.50
2023-04-08T01:37:44.313Z,11.51
2023-04-08T01:40:11.793Z,11.53
2023-04-08T01:42:39.344Z,11.55
2023-04-08T01:45:07.478Z,11.59
2023-04-08T01:47:35.771Z,11.60
2023-04-08T01:50:03.615Z,11.61
2023-04-08T01:52:30.808Z,11.62
2023-04-08T01:54:57.624Z,11.63
2023-04-08T01:57:28.692Z,11.64
2023-04-08T02:00:01.032Z,11.66
2023-04-08T02:02:29.040Z,11.65
2023-04-08T02:04:55.890Z,11.65
2023-04-08T02:07:22.967Z,11.66
2023-04-08T02:09:51.333Z,11.66
2023-04-08T02:12:18.378Z,11.66
2023-04-08T02:14:45.430Z,11.65
2023-04-08T02:17:19.930Z,11.67
2023-04-08T02:20:10.566Z,11.68
2023-04-08T02:23:02.313Z,11.69
2023-04-08T02:25:30.561Z,11.70
2023-04-08T02:27:59.685Z,11.72
2023-04-08T02:30:28.416Z,11.74
2023-04-08T02:32:57.105Z,11.75
2023-04-08T02:35:24.401Z,11.76
2023-04-08T02:37:51.512Z,11.78
2023-04-08T02:40:30.629Z,11.79
2023-04-08T02:42:58.291Z,11.78
2023-04-08T02:45:32.503Z,11.76
2023-04-08T02:48:00.803Z,11.69
2023-04-08T02:50:27.776Z,11.67
2023-04-08T02:52:55.293Z,11.65
2023-04-08T02:55:22.056Z,11.63
2023-04-08T02:57:49.286Z,11.63
2023-04-08T03:00:17.061Z,11.63
2023-04-08T03:02:44.112Z,11.61
2023-04-08T03:05:11.563Z,11.61
2023-04-08T03:07:38.456Z,11.62
2023-04-08T03:10:06.215Z,11.62
2023-04-08T03:12:33.019Z,11.59
2023-04-08T03:15:00.887Z,11.60
2023-04-08T03:17:27.784Z,11.60
2023-04-08T03:19:54.611Z,11.59
2023-04-08T03:22:21.385Z,11.61
2023-04-08T03:24:48.133Z,11.61
2023-04-08T03:27:14.894Z,11.61
2023-04-08T03:29:41.740Z,11.59
2023-04-08T03:32:08.704Z,11.60
2023-04-08T03:34:35.905Z,11.58
2023-04-08T03:37:02.945Z,11.57
2023-04-08T03:39:29.732Z,11.57
2023-04-08T03:41:56.590Z,11.56
2023-04-08T03:44:23.380Z,11.55
2023-04-08T03:46:50.162Z,11.54
2023-04-08T03:49:16.915Z,11.53
2023-04-08T03:51:43.654Z,11.52
2023-04-08T03:54:10.762Z,11.51
2023-04-08T03:56:37.534Z,11.52
2023-04-08T03:59:04.339Z,11.51
2023-04-08T04:01:32.243Z,11.50
2023-04-08T04:03:59.209Z,11.50
2023-04-08T04:06:26.580Z,11.51
2023-04-08T04:08:56.537Z,11.49
2023-04-08T04:11:23.282Z,11.50
2023-04-08T04:13:50.058Z,11.48
2023-04-08T04:16:16.896Z,11.48
2023-04-08T04:18:43.808Z,11.46
2023-04-08T04:21:10.685Z,11.45
2023-04-08T04:23:37.565Z,11.45
2023-04-08T04:26:11.207Z,11.46
2023-04-08T04:28:38.501Z,11.46
2023-04-08T04:31:05.515Z,11.46
2023-04-08T04:33:32.327Z,11.44
2023-04-08T04:35:59.118Z,11.46
2023-04-08T04:38:26.986Z,11.46
2023-04-08T04:40:53.775Z,11.44
2023-04-08T04:43:20.552Z,11.42
2023-04-08T04:45:47.297Z,11.40
2023-04-08T04:48:14.051Z,11.41
2023-04-08T04:50:41.133Z,11.41
2023-04-08T04:53:07.884Z,11.39
2023-04-08T04:55:34.653Z,11.39
2023-04-08T04:58:01.738Z,11.38
2023-04-08T05:00:28.517Z,11.36
2023-04-08T05:02:55.569Z,11.34
2023-04-08T05:05:22.664Z,11.34
2023-04-08T05:07:49.573Z,11.36
2023-04-08T05:10:16.476Z,11.35
2023-04-08T05:12:43.249Z,11.35
2023-04-08T05:15:10.530Z,11.37
2023-04-08T05:17:37.272Z,11.36
2023-04-08T05:20:04.910Z,11.37
2023-04-08T05:22:31.901Z,11.38
2023-04-08T05:24:58.678Z,11.41
2023-04-08T05:27:25.622Z,11.40
2023-04-08T05:29:52.412Z,11.42
2023-04-08T05:32:19.183Z,11.40
2023-04-08T05:34:45.970Z,11.40
2023-04-08T05:37:12.745Z,11.41
2023-04-08T05:39:39.485Z,11.39
2023-04-08T05:42:06.275Z,11.37
2023-04-08T05:44:33.064Z,11.38
2023-04-08T05:47:00.550Z,11.39
2023-04-08T05:49:27.460Z,11.41
2023-04-08T05:51:54.234Z,11.41
2023-04-08T05:54:21.120Z,11.41
2023-04-08T05:56:48.864Z,11.41
2023-04-08T05:59:15.708Z,11.41
2023-04-08T06:01:42.533Z,11.43
2023-04-08T06:04:09.683Z,11.46
2023-04-08T06:06:39.795Z,11.47
2023-04-08T06:09:06.591Z,11.49
2023-04-08T06:11:33.380Z,11.51
2023-04-08T06:14:00.160Z,11.52
2023-04-08T06:16:27.228Z,11.53
2023-04-08T06:18:54.189Z,11.54
2023-04-08T06:21:21.526Z,11.54
2023-04-08T06:23:48.369Z,11.53
2023-04-08T06:26:15.333Z,11.55
2023-04-08T06:28:42.113Z,11.53
2023-04-08T06:31:08.897Z,11.54
2023-04-08T06:33:35.741Z,11.53
2023-04-08T06:36:04.366Z,11.50
2023-04-08T06:38:32.016Z,11.49
2023-04-08T06:41:08.485Z,11.47
2023-04-08T06:43:37.948Z,11.46
2023-04-08T06:46:07.840Z,11.44
2023-04-08T06:48:34.630Z,11.44
2023-04-08T06:51:01.586Z,11.43
2023-04-08T06:53:33.061Z,11.39
2023-04-08T06:56:00.366Z,11.38
2023-04-08T06:58:27.396Z,11.37
2023-04-08T07:00:56.355Z,11.36
2023-04-08T07:03:24.078Z,11.37
2023-04-08T07:05:51.010Z,11.35
2023-04-08T07:08:17.769Z,11.33
2023-04-08T07:10:44.864Z,11.32
2023-04-08T07:13:12.125Z,11.32
2023-04-08T07:15:38.908Z,11.31
2023-04-08T07:18:05.979Z,11.30
2023-04-08T07:20:35.754Z,11.31
2023-04-08T07:23:02.498Z,11.34
2023-04-08T07:25:29.288Z,11.35
2023-04-08T07:27:56.308Z,11.37
2023-04-08T07:30:23.413Z,11.40
2023-04-08T07:32:50.220Z,11.41
2023-04-08T07:35:23.971Z,11.46
2023-04-08T07:37:51.370Z,11.50
2023-04-08T07:40:18.098Z,11.53
2023-04-08T07:42:44.858Z,11.56
2023-04-08T07:45:11.931Z,11.62
2023-04-08T07:47:38.788Z,11.67
2023-04-08T07:50:06.769Z,11.69
2023-04-08T07:52:34.213Z,11.73
2023-04-08T07:55:01.926Z,11.77
2023-04-08T07:57:28.868Z,11.81
2023-04-08T07:59:55.961Z,11.89
2023-04-08T08:02:22.967Z,11.91
2023-04-08T08:04:49.990Z,11.95
2023-04-08T08:07:16.827Z,11.98
2023-04-08T08:09:43.586Z,12.00
2023-04-08T08:12:10.406Z,12.02
2023-04-08T08:14:37.171Z,12.07
2023-04-08T08:17:04.521Z,12.13
2023-04-08T08:19:31.324Z,12.18
2023-04-08T08:21:58.094Z,12.25
2023-04-08T08:24:25.846Z,12.30
2023-04-08T08:26:52.636Z,12.33
2023-04-08T08:29:19.403Z,12.34
2023-04-08T08:31:48.359Z,12.38
2023-04-08T08:34:15.495Z,12.48
2023-04-08T08:36:42.261Z,12.55
2023-04-08T08:39:09.009Z,12.63
2023-04-08T08:41:38.335Z,12.68
2023-04-08T08:44:09.955Z,12.68
2023-04-08T08:46:36.795Z,12.68
2023-04-08T08:49:03.647Z,12.67
2023-04-08T08:51:32.600Z,12.65
2023-04-08T08:54:03.402Z,12.65
2023-04-08T08:56:30.678Z,12.63
2023-04-08T08:58:57.643Z,12.64
2023-04-08T09:01:33.565Z,12.65
2023-04-08T09:04:20.247Z,12.66
2023-04-08T09:07:11.038Z,12.61
2023-04-08T09:09:51.139Z,12.59
2023-04-08T09:12:18.346Z,12.54
2023-04-08T09:14:45.470Z,12.56
2023-04-08T09:17:12.532Z,12.57
2023-04-08T09:19:39.402Z,12.59
2023-04-08T09:22:11.548Z,12.63
2023-04-08T09:24:38.395Z,12.65
2023-04-08T09:27:05.655Z,12.70
2023-04-08T09:29:35.692Z,12.73
2023-04-08T09:32:04.257Z,12.78
2023-04-08T09:34:33.917Z,12.81
2023-04-08T09:37:00.819Z,12.85
2023-04-08T09:39:27.649Z,12.90
2023-04-08T09:41:58.534Z,12.95
2023-04-08T09:44:29.049Z,13.00
2023-04-08T09:47:08.087Z,13.03
2023-04-08T09:49:43.308Z,13.04
2023-04-08T09:52:25.335Z,13.07
2023-04-08T09:55:04.781Z,13.05
2023-04-08T09:58:04.536Z,13.04
2023-04-08T10:00:50.450Z,13.05
2023-04-08T10:03:34.165Z,13.03
2023-04-08T10:06:03.304Z,13.02
2023-04-08T10:08:31.496Z,12.97
2023-04-08T10:10:58.563Z,12.96
2023-04-08T10:13:28.306Z,12.97
2023-04-08T10:16:17.571Z,13.00
2023-04-08T10:18:46.123Z,13.02
2023-04-08T10:21:39.420Z,13.05
2023-04-08T10:24:11.147Z,13.09
2023-04-08T10:26:42.877Z,13.12
2023-04-08T10:29:18.735Z,13.15
2023-04-08T10:31:47.337Z,13.15
2023-04-08T10:34:26.508Z,13.15
2023-04-08T10:36:55.675Z,13.14
2023-04-08T10:39:22.747Z,13.14
2023-04-08T10:41:51.443Z,13.14
2023-04-08T10:44:20.248Z,13.14
2023-04-08T10:46:49.113Z,13.13
2023-04-08T10:49:17.463Z,13.14
2023-04-08T10:51:46.073Z,13.17
2023-04-08T10:54:16.629Z,13.17
2023-04-08T10:56:52.383Z,13.21
2023-04-08T10:59:32.909Z,13.23
2023-04-08T11:02:01.250Z,13.24
2023-04-08T11:04:28.497Z,13.27
2023-04-08T11:06:55.348Z,13.28
2023-04-08T11:09:22.136Z,13.30
2023-04-08T11:11:48.923Z,13.33
2023-04-08T11:14:19.635Z,13.37
2023-04-08T11:16:46.423Z,13.40
2023-04-08T11:19:14.187Z,13.41
2023-04-08T11:21:41.213Z,13.43
2023-04-08T11:24:12.072Z,13.47
2023-04-08T11:26:39.485Z,13.48
2023-04-08T11:29:06.878Z,13.51
2023-04-08T11:31:34.631Z,13.51
2023-04-08T11:34:01.717Z,13.45
2023-04-08T11:36:31.149Z,13.43
2023-04-08T11:38:57.926Z,13.39
2023-04-08T11:41:24.724Z,13.39
2023-04-08T11:43:56.516Z,13.40
2023-04-08T11:46:24.006Z,13.39
2023-04-08T11:49:03.395Z,13.37
2023-04-08T11:51:30.333Z,13.38
2023-04-08T11:53:57.901Z,13.36
2023-04-08T11:56:25.672Z,13.37
2023-04-08T11:58:52.720Z,13.39
2023-04-08T12:01:19.970Z,13.40
2023-04-08T12:04:00.387Z,13.42
2023-04-08T12:06:28.818Z,13.39
2023-04-08T12:08:57.433Z,13.36
2023-04-08T12:11:24.749Z,13.30
2023-04-08T12:13:52.688Z,13.20
2023-04-08T12:16:20.562Z,13.08
2023-04-08T12:18:47.576Z,12.99
2023-04-08T12:21:14.354Z,12.92
2023-04-08T12:23:41.434Z,12.86
2023-04-08T12:26:08.294Z,12.82
2023-04-08T12:28:36.086Z,12.80
2023-04-08T12:31:03.343Z,12.80
2023-04-08T12:33:30.484Z,12.77
2023-04-08T12:36:00.943Z,12.79
2023-04-08T12:38:27.741Z,12.81
2023-04-08T12:40:55.242Z,12.83
2023-04-08T12:43:23.603Z,12.91
2023-04-08T12:45:50.702Z,13.03
2023-04-08T12:48:17.687Z,13.12
2023-04-08T12:50:44.665Z,13.22
2023-04-08T12:53:11.583Z,13.30
2023-04-08T12:55:38.334Z,13.34
2023-04-08T12:58:05.986Z,13.38
2023-04-08T13:00:32.799Z,13.46
2023-04-08T13:02:59.761Z,13.55
2023-04-08T13:05:42.191Z,13.64
2023-04-08T13:08:12.302Z,13.70
2023-04-08T13:10:39.120Z,13.76
2023-04-08T13:13:06.587Z,13.83
2023-04-08T13:15:33.362Z,13.87
2023-04-08T13:18:00.206Z,13.93
2023-04-08T13:20:27.062Z,14.00
2023-04-08T13:22:53.958Z,14.09
2023-04-08T13:25:20.881Z,14.21
2023-04-08T13:27:47.694Z,14.28
2023-04-08T13:30:14.716Z,14.34
2023-04-08T13:32:41.592Z,14.42
2023-04-08T13:35:08.655Z,14.49
2023-04-08T13:37:35.552Z,14.52
2023-04-08T13:40:02.829Z,14.54
2023-04-08T13:42:31.428Z,14.54
2023-04-08T13:44:58.378Z,14.61
2023-04-08T13:47:25.307Z,14.67
2023-04-08T13:49:52.124Z,14.71
2023-04-08T13:52:18.923Z,14.71
2023-04-08T13:54:46.077Z,14.71
2023-04-08T13:57:13.233Z,14.72
2023-04-08T13:59:40.931Z,14.70
2023-04-08T14:02:08.870Z,14.67
2023-04-08T14:04:35.658Z,14.67
2023-04-08T14:07:02.535Z,14.66
2023-04-08T14:09:29.423Z,14.66
2023-04-08T14:11:56.871Z,14.64
2023-04-08T14:14:23.612Z,14.62
2023-04-08T14:16:50.604Z,14.58
2023-04-08T14:19:18.196Z,14.58
2023-04-08T14:21:45.255Z,14.55
2023-04-08T14:24:12.034Z,14.55
2023-04-08T14:26:38.806Z,14.57
2023-04-08T14:29:06.881Z,14.60
2023-04-08T14:31:34.582Z,14.62
2023-04-08T14:34:02.118Z,14.63
2023-04-08T14:36:29.276Z,14.62
2023-04-08T14:38:56.219Z,14.61
2023-04-08T14:41:23.258Z,14.59
2023-04-08T14:43:50.124Z,14.54
2023-04-08T14:46:16.973Z,14.50
2023-04-08T14:48:44.314Z,14.46
2023-04-08T14:51:11.103Z,14.42
2023-04-08T14:53:37.838Z,14.38
2023-04-08T14:56:05.172Z,14.33
2023-04-08T14:58:31.992Z,14.31
2023-04-08T15:00:58.732Z,14.27
2023-04-08T15:03:25.671Z,14.25
2023-04-08T15:05:53.064Z,14.26
2023-04-08T15:08:19.868Z,14.25
2023-04-08T15:10:46.698Z,14.20
2023-04-08T15:13:13.475Z,14.18
2023-04-08T15:15:40.382Z,14.15
2023-04-08T15:18:07.238Z,14.12
2023-04-08T15:20:34.031Z,14.10
2023-04-08T15:23:01.198Z,14.06
2023-04-08T15:25:28.042Z,14.01
2023-04-08T15:27:54.798Z,13.99
2023-04-08T15:30:25.371Z,13.94
2023-04-08T15:32:52.831Z,13.90
2023-04-08T15:35:19.655Z,13.87
2023-04-08T15:37:46.462Z,13.84
2023-04-08T15:40:13.339Z,13.80
2023-04-08T15:42:40.145Z,13.79
2023-04-08T15:45:07.825Z,13.78
2023-04-08T15:47:35.168Z,13.77
2023-04-08T15:50:02.003Z,13.76
2023-04-08T15:52:28.743Z,13.72
2023-04-08T15:54:55.559Z,13.71
2023-04-08T15:57:26.420Z,13.68
2023-04-08T15:59:56.155Z,13.69
2023-04-08T16:02:23.168Z,13.69
2023-04-08T16:04:50.610Z,13.71
2023-04-08T16:07:18.176Z,13.71
2023-04-08T16:09:44.916Z,13.73
2023-04-08T16:12:11.773Z,13.76
2023-04-08T16:14:38.513Z,13.77
2023-04-08T16:17:06.262Z,13.78
2023-04-08T16:19:33.346Z,13.76
2023-04-08T16:22:00.366Z,13.76
2023-04-08T16:24:27.315Z,13.74
2023-04-08T16:26:54.083Z,13.74
2023-04-08T16:29:22.630Z,13.72
2023-04-08T16:31:49.966Z,13.72
2023-04-08T16:34:18.070Z,13.71
2023-04-08T16:36:44.819Z,13.70
2023-04-08T16:39:11.618Z,13.69
2023-04-08T16:41:39.320Z,13.66
2023-04-08T16:44:06.706Z,13.62
2023-04-08T16:46:33.523Z,13.60
2023-04-08T16:49:00.417Z,13.56
2023-04-08T16:51:27.192Z,13.54
2023-04-08T16:53:57.064Z,13.53
2023-04-08T16:56:25.190Z,13.51
2023-04-08T16:58:53.327Z,13.50
2023-04-08T17:01:20.621Z,13.48
2023-04-08T17:03:52.186Z,13.45
2023-04-08T17:06:19.178Z,13.45
2023-04-08T17:08:45.985Z,13.42
2023-04-08T17:11:14.912Z,13.40
2023-04-08T17:13:43.325Z,13.39
2023-04-08T17:16:18.089Z,13.38
2023-04-08T17:18:45.723Z,13.35
2023-04-08T17:21:14.241Z,13.34
2023-04-08T17:23:41.038Z,13.33
2023-04-08T17:26:12.710Z,13.35
2023-04-08T17:28:39.499Z,13.33
2023-04-08T17:31:06.311Z,13.34
2023-04-08T17:33:33.946Z,13.33
2023-04-08T17:36:00.839Z,13.31
2023-04-08T17:38:27.834Z,13.31
2023-04-08T17:40:54.616Z,13.28
2023-04-08T17:43:21.458Z,13.28
2023-04-08T17:45:50.023Z,13.28
2023-04-08T17:48:17.102Z,13.27
2023-04-08T17:50:43.876Z,13.26
2023-04-08T17:53:10.681Z,13.25
2023-04-08T17:55:37.465Z,13.24
2023-04-08T17:58:04.410Z,13.23
2023-04-08T18:00:31.366Z,13.22
2023-04-08T18:02:58.187Z,13.22
2023-04-08T18:05:25.051Z,13.22
2023-04-08T18:07:51.869Z,13.20
2023-04-08T18:10:18.753Z,13.19
2023-04-08T18:12:45.677Z,13.18
2023-04-08T18:15:12.528Z,13.16
2023-04-08T18:17:39.302Z,13.16
2023-04-08T18:20:07.091Z,13.14
2023-04-08T18:22:33.836Z,13.13
2023-04-08T18:25:01.647Z,13.12
2023-04-08T18:27:28.408Z,13.10
2023-04-08T18:29:55.347Z,13.12
2023-04-08T18:32:22.197Z,13.11
2023-04-08T18:34:52.360Z,13.10
2023-04-08T18:37:21.556Z,13.09
2023-04-08T18:39:48.663Z,13.11
2023-04-08T18:42:15.436Z,13.11
2023-04-08T18:44:42.765Z,13.12
2023-04-08T18:47:10.707Z,13.13
2023-04-08T18:49:38.575Z,13.13
2023-04-08T18:52:06.638Z,13.15
2023-04-08T18:54:33.410Z,13.13
2023-04-08T18:57:00.605Z,13.13
2023-04-08T18:59:28.473Z,13.12
2023-04-08T19:01:55.665Z,13.13
2023-04-08T19:04:22.776Z,13.12
2023-04-08T19:06:49.651Z,13.11
2023-04-08T19:09:16.916Z,13.12
2023-04-08T19:11:43.700Z,13.12
2023-04-08T19:14:10.529Z,13.11
2023-04-08T19:16:39.322Z,13.09
2023-04-08T19:19:07.626Z,13.09
2023-04-08T19:21:37.568Z,13.08
2023-04-08T19:24:06.129Z,13.07
2023-04-08T19:26:33.716Z,13.06
2023-04-08T19:29:01.012Z,13.05
2023-04-08T19:31:27.861Z,13.01
2023-04-08T19:33:54.716Z,13.01
2023-04-08T19:36:21.489Z,13.00
2023-04-08T19:38:48.296Z,12.97
2023-04-08T19:41:15.486Z,12.96
2023-04-08T19:43:42.231Z,12.90
2023-04-08T19:46:09.297Z,12.84
2023-04-08T19:48:36.196Z,12.78
2023-04-08T19:51:03.622Z,12.71
2023-04-08T19:53:30.691Z,12.65
2023-04-08T19:56:03.809Z,12.58
2023-04-08T19:58:30.625Z,12.50
2023-04-08T20:00:57.421Z,12.42
2023-04-08T20:03:24.512Z,12.35
2023-04-08T20:05:52.383Z,12.27
2023-04-08T20:08:19.216Z,12.20
2023-04-08T20:10:46.521Z,12.14
2023-04-08T20:13:14.479Z,12.08
2023-04-08T20:15:41.449Z,12.01
2023-04-08T20:18:08.267Z,11.97
2023-04-08T20:20:35.434Z,11.91
2023-04-08T20:23:02.220Z,11.85
2023-04-08T20:25:29.156Z,11.79
2023-04-08T20:27:57.294Z,11.75
2023-04-08T20:30:24.126Z,11.71
2023-04-08T20:32:50.988Z,11.66
2023-04-08T20:35:18.148Z,11.60
2023-04-08T20:37:44.938Z,11.55
2023-04-08T20:40:11.891Z,11.52
2023-04-08T20:42:38.874Z,11.48
2023-04-08T20:45:06.864Z,11.45
2023-04-08T20:47:33.745Z,11.40
2023-04-08T20:50:00.676Z,11.37
2023-04-08T20:52:27.557Z,11.32
2023-04-08T20:54:54.460Z,11.27
2023-04-08T20:57:21.220Z,11.23
2023-04-08T20:59:48.052Z,11.20
2023-04-08T21:02:15.650Z,11.18
2023-04-08T21:04:42.693Z,11.12
2023-04-08T21:07:09.457Z,11.09
2023-04-08T21:09:36.233Z,11.05
2023-04-08T21:12:03.010Z,11.02
2023-04-08T21:14:31.915Z,11.00
2023-04-08T21:16:58.793Z,10.95
2023-04-08T21:19:25.617Z,10.91
2023-04-08T21:21:52.385Z,10.88
2023-04-08T21:24:19.140Z,10.84
2023-04-08T21:26:45.923Z,10.78
2023-04-08T21:29:12.780Z,10.75
2023-04-08T21:31:40.860Z,10.72
2023-04-08T21:34:07.804Z,10.67
2023-04-08T21:36:34.596Z,10.65
2023-04-08T21:39:01.405Z,10.62
2023-04-08T21:41:30.310Z,10.58
2023-04-08T21:43:57.476Z,10.55
2023-04-08T21:46:24.518Z,10.50
2023-04-08T21:48:51.453Z,10.47
2023-04-08T21:51:18.705Z,10.45
2023-04-08T21:53:46.020Z,10.41
2023-04-08T21:56:13.858Z,10.38
2023-04-08T21:58:40.693Z,10.35
2023-04-08T22:01:07.554Z,10.31
2023-04-08T22:03:34.477Z,10.30
2023-04-08T22:06:01.514Z,10.26
2023-04-08T22:08:28.401Z,10.26
2023-04-08T22:10:55.167Z,10.25
2023-04-08T22:13:21.977Z,10.29
2023-04-08T22:15:48.815Z,10.33
2023-04-08T22:18:15.591Z,10.37
2023-04-08T22:20:42.408Z,10.41
2023-04-08T22:23:09.201Z,10.46
2023-04-08T22:25:35.969Z,10.52
2023-04-08T22:28:02.751Z,10.56
2023-04-08T22:30:30.386Z,10.61
2023-04-08T22:32:57.206Z,10.64
2023-04-08T22:35:23.979Z,10.67
2023-04-08T22:37:50.757Z,10.70
2023-04-08T22:40:17.544Z,10.71
2023-04-08T22:42:44.276Z,10.74
2023-04-08T22:45:11.331Z,10.76
2023-04-08T22:47:38.151Z,10.81
2023-04-08T22:50:06.305Z,10.83
2023-04-08T22:52:33.067Z,10.86
2023-04-08T22:54:59.867Z,10.89
2023-04-08T22:57:26.642Z,10.90
2023-04-08T22:59:53.386Z,10.90
2023-04-08T23:02:20.388Z,10.92
2023-04-08T23:04:47.210Z,10.93
2023-04-08T23:07:14.000Z,10.89
2023-04-08T23:09:40.888Z,10.86
2023-04-08T23:12:07.649Z,10.82
2023-04-08T23:14:34.460Z,10.77
2023-04-08T23:17:01.689Z,10.74
2023-04-08T23:19:29.850Z,10.69
2023-04-08T23:21:56.584Z,10.66
2023-04-08T23:24:23.332Z,10.62
2023-04-08T23:26:50.092Z,10.56
2023-04-08T23:29:16.847Z,10.53
2023-04-08T23:31:44.124Z,10.49
2023-04-08T23:34:11.617Z,10.48
2023-04-08T23:36:38.396Z,10.44
2023-04-08T23:39:05.535Z,10.43
2023-04-08T23:41:32.341Z,10.40
2023-04-08T23:43:59.083Z,10.38
2023-04-08T23:46:25.919Z,10.34
2023-04-08T23:48:53.027Z,10.29
2023-04-08T23:51:19.920Z,10.23
2023-04-08T23:53:46.757Z,10.20
2023-04-08T23:56:13.584Z,10.19
2023-04-08T23:58:40.481Z,10.20
